LFBZ/BIQ METAR and TAF weather

Enter ICAO airport designator
Station Type Date Time Source
LFBZ METAR 2021/09/25 11:30 UTC NOAA

LFBZ 251130Z AUTO 28008KT 250V310 9999 SCT068 25/15 Q1014 TEMPO 3000 TSRA BKN050CB


Station Type Date Time Source
LFBZ Decoded METAR 2021/09/25 11:30 UTC NOAA

Biarritz, France (LFBZ) 43-28N 001-32W 71M
Sep 25, 2021 - 07:30 AM EDT / 2021.09.25 1130 UTC
Wind: from the W (280 degrees) at 9 MPH (8 KT) (direction variable):0
Visibility: greater than 7 mile(s):0
Sky conditions: partly cloudy
Weather: Cumulonimbus clouds observed
Temperature: 77 F (25 C)
Dew Point: 59 F (15 C)
Relative Humidity: 53%
Pressure (altimeter): 29.94 in. Hg (1014 hPa)
ob: LFBZ 251130Z AUTO 28008KT 250V310 9999 SCT068 25/15 Q1014 TEMPO 3000 TSRA BKN050CB
cycle: 11

Station Type Date Time Source
LFBZ TAF 2021/09/25 12:46 UTC NOAA

TAF LFBZ 251100Z 2512/2612 27010KT CAVOK
TEMPO 2513/2524 4000 SHRA BKN060TCU PROB30
TEMPO 2514/2517 VRB15G25KT 3000 TSRA BKN014 BKN060CB
BECMG 2514/2516 30005KT

Example: see airport list